sensor_id;sensor_type;location;lat;lon;timestamp;P1;durP1;ratioP1;P2;durP2;ratioP2
21202;SDS011;10759;51.982;9.232;2023-07-13T00:01:19;2.70;;;2.17;;
21202;SDS011;10759;51.982;9.232;2023-07-13T00:03:47;5.38;;;2.53;;
21202;SDS011;10759;51.982;9.232;2023-07-13T00:06:15;3.00;;;2.65;;
21202;SDS011;10759;51.982;9.232;2023-07-13T00:08:43;3.05;;;2.17;;
21202;SDS011;10759;51.982;9.232;2023-07-13T00:11:11;4.00;;;2.22;;
21202;SDS011;10759;51.982;9.232;2023-07-13T00:13:41;4.63;;;2.40;;
21202;SDS011;10759;51.982;9.232;2023-07-13T00:16:10;2.40;;;2.08;;
21202;SDS011;10759;51.982;9.232;2023-07-13T00:18:40;3.75;;;1.92;;
21202;SDS011;10759;51.982;9.232;2023-07-13T00:21:08;5.07;;;2.70;;
21202;SDS011;10759;51.982;9.232;2023-07-13T00:23:36;3.72;;;1.90;;
21202;SDS011;10759;51.982;9.232;2023-07-13T00:26:07;2.90;;;2.10;;
21202;SDS011;10759;51.982;9.232;2023-07-13T00:28:37;2.35;;;2.03;;
21202;SDS011;10759;51.982;9.232;2023-07-13T00:31:08;3.45;;;2.25;;
21202;SDS011;10759;51.982;9.232;2023-07-13T00:33:37;2.85;;;2.20;;
21202;SDS011;10759;51.982;9.232;2023-07-13T00:36:05;3.42;;;2.25;;
21202;SDS011;10759;51.982;9.232;2023-07-13T00:38:34;4.38;;;2.70;;
21202;SDS011;10759;51.982;9.232;2023-07-13T00:41:02;4.78;;;3.22;;
21202;SDS011;10759;51.982;9.232;2023-07-13T00:43:31;3.43;;;2.33;;
21202;SDS011;10759;51.982;9.232;2023-07-13T00:46:15;2.55;;;1.95;;
21202;SDS011;10759;51.982;9.232;2023-07-13T00:48:46;4.28;;;2.38;;
21202;SDS011;10759;51.982;9.232;2023-07-13T00:51:16;3.70;;;2.00;;
21202;SDS011;10759;51.982;9.232;2023-07-13T00:53:48;3.17;;;2.38;;
21202;SDS011;10759;51.982;9.232;2023-07-13T00:56:17;3.67;;;2.30;;
21202;SDS011;10759;51.982;9.232;2023-07-13T00:58:45;5.70;;;2.60;;
21202;SDS011;10759;51.982;9.232;2023-07-13T01:01:15;2.33;;;2.13;;
21202;SDS011;10759;51.982;9.232;2023-07-13T01:03:43;2.97;;;2.30;;
21202;SDS011;10759;51.982;9.232;2023-07-13T01:06:12;4.13;;;2.60;;
21202;SDS011;10759;51.982;9.232;2023-07-13T01:08:41;2.70;;;2.13;;
21202;SDS011;10759;51.982;9.232;2023-07-13T01:11:09;2.30;;;2.20;;
21202;SDS011;10759;51.982;9.232;2023-07-13T01:13:37;2.80;;;2.10;;
21202;SDS011;10759;51.982;9.232;2023-07-13T01:16:05;2.95;;;2.53;;
21202;SDS011;10759;51.982;9.232;2023-07-13T01:18:43;5.10;;;2.38;;
21202;SDS011;10759;51.982;9.232;2023-07-13T01:21:13;3.45;;;2.17;;
21202;SDS011;10759;51.982;9.232;2023-07-13T01:23:42;3.65;;;2.33;;
21202;SDS011;10759;51.982;9.232;2023-07-13T01:26:10;2.13;;;1.90;;
21202;SDS011;10759;51.982;9.232;2023-07-13T01:28:39;4.82;;;2.45;;
21202;SDS011;10759;51.982;9.232;2023-07-13T01:31:07;3.42;;;2.08;;
21202;SDS011;10759;51.982;9.232;2023-07-13T01:33:36;2.17;;;1.98;;
21202;SDS011;10759;51.982;9.232;2023-07-13T01:36:05;5.07;;;2.40;;
21202;SDS011;10759;51.982;9.232;2023-07-13T01:41:06;3.60;;;2.22;;
21202;SDS011;10759;51.982;9.232;2023-07-13T01:43:34;4.28;;;2.38;;
21202;SDS011;10759;51.982;9.232;2023-07-13T01:46:02;3.15;;;2.45;;
21202;SDS011;10759;51.982;9.232;2023-07-13T01:48:48;4.00;;;2.47;;
21202;SDS011;10759;51.982;9.232;2023-07-13T01:51:16;4.03;;;2.38;;
21202;SDS011;10759;51.982;9.232;2023-07-13T01:53:47;3.58;;;2.65;;
21202;SDS011;10759;51.982;9.232;2023-07-13T01:56:16;3.60;;;2.53;;
21202;SDS011;10759;51.982;9.232;2023-07-13T01:58:45;4.07;;;2.10;;
21202;SDS011;10759;51.982;9.232;2023-07-13T02:01:13;4.35;;;2.55;;
21202;SDS011;10759;51.982;9.232;2023-07-13T02:03:41;2.90;;;2.33;;
21202;SDS011;10759;51.982;9.232;2023-07-13T02:06:09;5.07;;;2.85;;
21202;SDS011;10759;51.982;9.232;2023-07-13T02:08:39;6.20;;;2.40;;
21202;SDS011;10759;51.982;9.232;2023-07-13T02:11:09;3.92;;;2.38;;
21202;SDS011;10759;51.982;9.232;2023-07-13T02:13:38;4.90;;;2.35;;
21202;SDS011;10759;51.982;9.232;2023-07-13T02:16:06;4.43;;;2.60;;
21202;SDS011;10759;51.982;9.232;2023-07-13T02:18:34;2.88;;;1.90;;
21202;SDS011;10759;51.982;9.232;2023-07-13T02:21:02;3.60;;;2.38;;
21202;SDS011;10759;51.982;9.232;2023-07-13T02:23:30;3.25;;;1.92;;
21202;SDS011;10759;51.982;9.232;2023-07-13T02:25:59;6.35;;;2.30;;
21202;SDS011;10759;51.982;9.232;2023-07-13T02:28:30;3.90;;;2.38;;
21202;SDS011;10759;51.982;9.232;2023-07-13T02:31:03;4.60;;;2.53;;
21202;SDS011;10759;51.982;9.232;2023-07-13T02:33:32;2.55;;;2.10;;
21202;SDS011;10759;51.982;9.232;2023-07-13T02:36:00;4.65;;;2.65;;
21202;SDS011;10759;51.982;9.232;2023-07-13T02:38:28;3.67;;;2.30;;
21202;SDS011;10759;51.982;9.232;2023-07-13T02:40:56;2.95;;;2.65;;
21202;SDS011;10759;51.982;9.232;2023-07-13T02:43:24;5.15;;;2.50;;
21202;SDS011;10759;51.982;9.232;2023-07-13T02:45:53;2.60;;;2.33;;
21202;SDS011;10759;51.982;9.232;2023-07-13T02:48:21;3.72;;;2.53;;
21202;SDS011;10759;51.982;9.232;2023-07-13T02:50:50;6.32;;;3.05;;
21202;SDS011;10759;51.982;9.232;2023-07-13T02:53:19;3.58;;;2.50;;
21202;SDS011;10759;51.982;9.232;2023-07-13T02:55:46;3.28;;;2.15;;
21202;SDS011;10759;51.982;9.232;2023-07-13T02:58:14;4.45;;;2.50;;
21202;SDS011;10759;51.982;9.232;2023-07-13T03:00:43;4.45;;;2.88;;
21202;SDS011;10759;51.982;9.232;2023-07-13T03:03:14;4.97;;;3.25;;
21202;SDS011;10759;51.982;9.232;2023-07-13T03:05:43;4.30;;;3.47;;
21202;SDS011;10759;51.982;9.232;2023-07-13T03:08:21;5.32;;;3.55;;
21202;SDS011;10759;51.982;9.232;2023-07-13T03:10:57;3.70;;;3.40;;
21202;SDS011;10759;51.982;9.232;2023-07-13T03:13:28;4.40;;;3.28;;
21202;SDS011;10759;51.982;9.232;2023-07-13T03:15:57;3.58;;;3.17;;
21202;SDS011;10759;51.982;9.232;2023-07-13T03:18:27;3.30;;;3.00;;
21202;SDS011;10759;51.982;9.232;2023-07-13T03:20:59;6.55;;;3.25;;
21202;SDS011;10759;51.982;9.232;2023-07-13T03:23:27;4.32;;;2.80;;
21202;SDS011;10759;51.982;9.232;2023-07-13T03:26:03;6.32;;;3.67;;
21202;SDS011;10759;51.982;9.232;2023-07-13T03:28:32;3.55;;;3.05;;
21202;SDS011;10759;51.982;9.232;2023-07-13T03:31:02;3.70;;;3.37;;
21202;SDS011;10759;51.982;9.232;2023-07-13T03:33:36;4.90;;;3.47;;
21202;SDS011;10759;51.982;9.232;2023-07-13T03:36:05;4.13;;;3.55;;
21202;SDS011;10759;51.982;9.232;2023-07-13T03:38:35;4.55;;;2.97;;
21202;SDS011;10759;51.982;9.232;2023-07-13T03:41:03;4.50;;;2.92;;
21202;SDS011;10759;51.982;9.232;2023-07-13T03:43:31;5.47;;;3.47;;
21202;SDS011;10759;51.982;9.232;2023-07-13T03:45:59;6.25;;;3.00;;
21202;SDS011;10759;51.982;9.232;2023-07-13T03:48:27;4.07;;;3.05;;
21202;SDS011;10759;51.982;9.232;2023-07-13T03:50:57;5.47;;;2.88;;
21202;SDS011;10759;51.982;9.232;2023-07-13T03:53:25;3.47;;;3.17;;
21202;SDS011;10759;51.982;9.232;2023-07-13T03:55:53;7.10;;;2.97;;
21202;SDS011;10759;51.982;9.232;2023-07-13T03:58:25;3.47;;;3.10;;
21202;SDS011;10759;51.982;9.232;2023-07-13T04:01:04;3.58;;;3.28;;
21202;SDS011;10759;51.982;9.232;2023-07-13T04:03:34;5.47;;;3.30;;
21202;SDS011;10759;51.982;9.232;2023-07-13T04:06:05;5.53;;;4.00;;
21202;SDS011;10759;51.982;9.232;2023-07-13T04:08:35;7.28;;;3.67;;
21202;SDS011;10759;51.982;9.232;2023-07-13T04:11:04;4.32;;;3.00;;
21202;SDS011;10759;51.982;9.232;2023-07-13T04:13:32;6.70;;;3.45;;
21202;SDS011;10759;51.982;9.232;2023-07-13T04:16:00;6.28;;;3.75;;
21202;SDS011;10759;51.982;9.232;2023-07-13T04:18:28;5.43;;;4.07;;
21202;SDS011;10759;51.982;9.232;2023-07-13T04:20:56;4.43;;;3.47;;
21202;SDS011;10759;51.982;9.232;2023-07-13T04:23:25;6.15;;;3.88;;
21202;SDS011;10759;51.982;9.232;2023-07-13T04:25:53;8.30;;;4.60;;
21202;SDS011;10759;51.982;9.232;2023-07-13T04:28:21;4.80;;;3.45;;
21202;SDS011;10759;51.982;9.232;2023-07-13T04:30:51;5.15;;;3.72;;
21202;SDS011;10759;51.982;9.232;2023-07-13T04:33:19;4.28;;;3.20;;
21202;SDS011;10759;51.982;9.232;2023-07-13T04:35:49;6.70;;;4.03;;
21202;SDS011;10759;51.982;9.232;2023-07-13T04:38:20;4.25;;;3.33;;
21202;SDS011;10759;51.982;9.232;2023-07-13T04:40:50;5.68;;;3.53;;
21202;SDS011;10759;51.982;9.232;2023-07-13T04:43:18;6.65;;;3.47;;
21202;SDS011;10759;51.982;9.232;2023-07-13T04:45:46;5.18;;;3.15;;
21202;SDS011;10759;51.982;9.232;2023-07-13T04:48:14;4.35;;;2.50;;
21202;SDS011;10759;51.982;9.232;2023-07-13T04:50:42;4.70;;;2.75;;
21202;SDS011;10759;51.982;9.232;2023-07-13T04:53:10;5.88;;;2.60;;
21202;SDS011;10759;51.982;9.232;2023-07-13T04:55:38;5.88;;;2.92;;
21202;SDS011;10759;51.982;9.232;2023-07-13T04:58:08;4.78;;;2.30;;
21202;SDS011;10759;51.982;9.232;2023-07-13T05:00:36;4.95;;;2.72;;
21202;SDS011;10759;51.982;9.232;2023-07-13T05:03:04;6.25;;;2.90;;
21202;SDS011;10759;51.982;9.232;2023-07-13T05:05:33;4.55;;;2.45;;
21202;SDS011;10759;51.982;9.232;2023-07-13T05:08:01;4.18;;;2.25;;
21202;SDS011;10759;51.982;9.232;2023-07-13T05:10:29;5.53;;;2.65;;
21202;SDS011;10759;51.982;9.232;2023-07-13T05:12:57;8.80;;;3.95;;
21202;SDS011;10759;51.982;9.232;2023-07-13T05:15:26;4.38;;;2.22;;
21202;SDS011;10759;51.982;9.232;2023-07-13T05:17:54;3.93;;;2.30;;
21202;SDS011;10759;51.982;9.232;2023-07-13T05:20:22;5.70;;;2.25;;
21202;SDS011;10759;51.982;9.232;2023-07-13T05:22:50;4.05;;;2.08;;
21202;SDS011;10759;51.982;9.232;2023-07-13T05:25:18;6.60;;;2.75;;
21202;SDS011;10759;51.982;9.232;2023-07-13T05:27:46;5.63;;;1.90;;
21202;SDS011;10759;51.982;9.232;2023-07-13T05:30:14;4.45;;;2.00;;
21202;SDS011;10759;51.982;9.232;2023-07-13T05:32:44;4.15;;;2.00;;
21202;SDS011;10759;51.982;9.232;2023-07-13T05:35:12;5.23;;;2.13;;
21202;SDS011;10759;51.982;9.232;2023-07-13T05:37:40;4.53;;;2.80;;
21202;SDS011;10759;51.982;9.232;2023-07-13T05:40:08;5.85;;;2.13;;
21202;SDS011;10759;51.982;9.232;2023-07-13T05:42:36;4.65;;;1.95;;
21202;SDS011;10759;51.982;9.232;2023-07-13T05:45:04;5.05;;;2.30;;
21202;SDS011;10759;51.982;9.232;2023-07-13T05:47:33;3.42;;;1.92;;
21202;SDS011;10759;51.982;9.232;2023-07-13T05:50:02;5.68;;;1.70;;
21202;SDS011;10759;51.982;9.232;2023-07-13T05:52:32;3.53;;;1.65;;
21202;SDS011;10759;51.982;9.232;2023-07-13T05:55:00;6.70;;;1.95;;
21202;SDS011;10759;51.982;9.232;2023-07-13T05:57:28;4.03;;;1.90;;
21202;SDS011;10759;51.982;9.232;2023-07-13T05:59:56;3.33;;;1.55;;
21202;SDS011;10759;51.982;9.232;2023-07-13T06:02:23;4.20;;;1.65;;
21202;SDS011;10759;51.982;9.232;2023-07-13T06:04:52;7.65;;;2.30;;
21202;SDS011;10759;51.982;9.232;2023-07-13T06:07:21;4.78;;;2.30;;
21202;SDS011;10759;51.982;9.232;2023-07-13T06:09:49;4.03;;;1.80;;
21202;SDS011;10759;51.982;9.232;2023-07-13T06:12:17;4.60;;;1.83;;
21202;SDS011;10759;51.982;9.232;2023-07-13T06:14:45;6.07;;;2.00;;
21202;SDS011;10759;51.982;9.232;2023-07-13T06:17:13;3.70;;;2.00;;
21202;SDS011;10759;51.982;9.232;2023-07-13T06:19:41;6.85;;;1.92;;
21202;SDS011;10759;51.982;9.232;2023-07-13T06:22:09;3.40;;;1.75;;
21202;SDS011;10759;51.982;9.232;2023-07-13T06:24:38;6.45;;;2.13;;
21202;SDS011;10759;51.982;9.232;2023-07-13T06:27:06;7.90;;;2.20;;
21202;SDS011;10759;51.982;9.232;2023-07-13T06:29:34;5.18;;;2.08;;
21202;SDS011;10759;51.982;9.232;2023-07-13T06:32:02;4.25;;;2.13;;
21202;SDS011;10759;51.982;9.232;2023-07-13T06:34:30;3.92;;;1.73;;
21202;SDS011;10759;51.982;9.232;2023-07-13T06:36:58;4.72;;;2.22;;
21202;SDS011;10759;51.982;9.232;2023-07-13T06:39:26;6.25;;;1.98;;
21202;SDS011;10759;51.982;9.232;2023-07-13T06:41:55;3.08;;;1.58;;
21202;SDS011;10759;51.982;9.232;2023-07-13T06:44:23;4.97;;;1.73;;
21202;SDS011;10759;51.982;9.232;2023-07-13T06:46:51;5.10;;;2.00;;
21202;SDS011;10759;51.982;9.232;2023-07-13T06:49:19;6.97;;;1.70;;
21202;SDS011;10759;51.982;9.232;2023-07-13T06:51:47;7.80;;;1.95;;
21202;SDS011;10759;51.982;9.232;2023-07-13T06:54:15;3.70;;;1.45;;
21202;SDS011;10759;51.982;9.232;2023-07-13T06:56:42;6.75;;;1.55;;
21202;SDS011;10759;51.982;9.232;2023-07-13T06:59:12;7.80;;;1.98;;
21202;SDS011;10759;51.982;9.232;2023-07-13T07:01:40;7.30;;;2.13;;
21202;SDS011;10759;51.982;9.232;2023-07-13T07:04:08;5.78;;;2.25;;
21202;SDS011;10759;51.982;9.232;2023-07-13T07:06:36;7.97;;;2.72;;
21202;SDS011;10759;51.982;9.232;2023-07-13T07:09:04;4.45;;;1.60;;
21202;SDS011;10759;51.982;9.232;2023-07-13T07:11:32;6.05;;;2.03;;
21202;SDS011;10759;51.982;9.232;2023-07-13T07:13:59;6.72;;;2.15;;
21202;SDS011;10759;51.982;9.232;2023-07-13T07:16:29;5.10;;;1.85;;
21202;SDS011;10759;51.982;9.232;2023-07-13T07:18:57;4.93;;;1.90;;
21202;SDS011;10759;51.982;9.232;2023-07-13T07:21:25;4.18;;;1.60;;
21202;SDS011;10759;51.982;9.232;2023-07-13T07:23:53;6.60;;;2.00;;
21202;SDS011;10759;51.982;9.232;2023-07-13T07:26:21;3.42;;;1.60;;
21202;SDS011;10759;51.982;9.232;2023-07-13T07:28:54;4.47;;;1.63;;
21202;SDS011;10759;51.982;9.232;2023-07-13T07:31:25;4.30;;;1.80;;
21202;SDS011;10759;51.982;9.232;2023-07-13T07:33:58;4.78;;;2.67;;
21202;SDS011;10759;51.982;9.232;2023-07-13T07:36:26;5.23;;;1.90;;
21202;SDS011;10759;51.982;9.232;2023-07-13T07:38:57;5.68;;;2.20;;
21202;SDS011;10759;51.982;9.232;2023-07-13T07:41:25;5.70;;;2.28;;
21202;SDS011;10759;51.982;9.232;2023-07-13T07:43:55;3.55;;;1.80;;
21202;SDS011;10759;51.982;9.232;2023-07-13T07:46:23;4.63;;;1.98;;
21202;SDS011;10759;51.982;9.232;2023-07-13T07:48:51;8.55;;;2.00;;
21202;SDS011;10759;51.982;9.232;2023-07-13T07:51:20;4.45;;;1.80;;
21202;SDS011;10759;51.982;9.232;2023-07-13T07:53:48;4.23;;;1.80;;
21202;SDS011;10759;51.982;9.232;2023-07-13T07:56:16;4.60;;;2.22;;
21202;SDS011;10759;51.982;9.232;2023-07-13T07:58:47;4.75;;;2.13;;
21202;SDS011;10759;51.982;9.232;2023-07-13T08:01:18;9.38;;;2.60;;
21202;SDS011;10759;51.982;9.232;2023-07-13T08:03:49;7.38;;;2.13;;
21202;SDS011;10759;51.982;9.232;2023-07-13T08:06:21;7.95;;;2.40;;
21202;SDS011;10759;51.982;9.232;2023-07-13T08:08:52;5.93;;;2.22;;
21202;SDS011;10759;51.982;9.232;2023-07-13T08:11:20;5.60;;;2.50;;
21202;SDS011;10759;51.982;9.232;2023-07-13T08:13:52;4.18;;;2.03;;
21202;SDS011;10759;51.982;9.232;2023-07-13T08:16:21;4.28;;;2.25;;
21202;SDS011;10759;51.982;9.232;2023-07-13T08:18:49;6.20;;;2.60;;
21202;SDS011;10759;51.982;9.232;2023-07-13T08:21:18;7.20;;;2.45;;
21202;SDS011;10759;51.982;9.232;2023-07-13T08:23:48;7.17;;;2.47;;
21202;SDS011;10759;51.982;9.232;2023-07-13T08:26:16;5.68;;;2.42;;
21202;SDS011;10759;51.982;9.232;2023-07-13T08:28:45;7.43;;;3.15;;
21202;SDS011;10759;51.982;9.232;2023-07-13T08:31:13;7.40;;;2.58;;
21202;SDS011;10759;51.982;9.232;2023-07-13T08:33:41;5.82;;;2.72;;
21202;SDS011;10759;51.982;9.232;2023-07-13T08:36:10;7.28;;;3.05;;
21202;SDS011;10759;51.982;9.232;2023-07-13T08:38:37;5.70;;;2.90;;
21202;SDS011;10759;51.982;9.232;2023-07-13T08:41:13;4.20;;;2.55;;
21202;SDS011;10759;51.982;9.232;2023-07-13T08:43:50;7.25;;;2.45;;
21202;SDS011;10759;51.982;9.232;2023-07-13T08:46:23;5.95;;;3.15;;
21202;SDS011;10759;51.982;9.232;2023-07-13T08:48:56;5.88;;;2.47;;
21202;SDS011;10759;51.982;9.232;2023-07-13T08:54:00;5.13;;;2.85;;
21202;SDS011;10759;51.982;9.232;2023-07-13T08:56:31;4.93;;;2.67;;
21202;SDS011;10759;51.982;9.232;2023-07-13T08:59:17;10.98;;;3.50;;
21202;SDS011;10759;51.982;9.232;2023-07-13T09:01:59;5.97;;;2.75;;
21202;SDS011;10759;51.982;9.232;2023-07-13T09:04:40;7.47;;;3.10;;
21202;SDS011;10759;51.982;9.232;2023-07-13T09:07:14;4.65;;;3.08;;
21202;SDS011;10759;51.982;9.232;2023-07-13T09:09:55;5.75;;;2.88;;
21202;SDS011;10759;51.982;9.232;2023-07-13T09:12:35;5.40;;;2.40;;
21202;SDS011;10759;51.982;9.232;2023-07-13T09:15:17;4.20;;;2.38;;
21202;SDS011;10759;51.982;9.232;2023-07-13T09:17:52;7.05;;;2.90;;
21202;SDS011;10759;51.982;9.232;2023-07-13T09:20:24;4.07;;;2.38;;
21202;SDS011;10759;51.982;9.232;2023-07-13T09:22:55;5.50;;;2.45;;
21202;SDS011;10759;51.982;9.232;2023-07-13T09:25:29;3.63;;;2.35;;
21202;SDS011;10759;51.982;9.232;2023-07-13T09:28:00;3.70;;;2.28;;
21202;SDS011;10759;51.982;9.232;2023-07-13T09:30:37;4.78;;;2.60;;
21202;SDS011;10759;51.982;9.232;2023-07-13T09:33:12;4.30;;;2.53;;
21202;SDS011;10759;51.982;9.232;2023-07-13T09:35:41;4.00;;;2.15;;
21202;SDS011;10759;51.982;9.232;2023-07-13T09:38:13;5.45;;;2.35;;
21202;SDS011;10759;51.982;9.232;2023-07-13T09:40:47;4.88;;;2.65;;
21202;SDS011;10759;51.982;9.232;2023-07-13T09:43:26;3.63;;;2.33;;
21202;SDS011;10759;51.982;9.232;2023-07-13T09:48:23;6.13;;;2.60;;
21202;SDS011;10759;51.982;9.232;2023-07-13T09:50:54;6.25;;;3.03;;
21202;SDS011;10759;51.982;9.232;2023-07-13T09:53:23;3.80;;;2.63;;
21202;SDS011;10759;51.982;9.232;2023-07-13T09:55:51;4.30;;;2.55;;
21202;SDS011;10759;51.982;9.232;2023-07-13T09:58:20;4.20;;;2.35;;
21202;SDS011;10759;51.982;9.232;2023-07-13T10:00:56;4.57;;;2.40;;
21202;SDS011;10759;51.982;9.232;2023-07-13T10:03:26;4.80;;;2.30;;
21202;SDS011;10759;51.982;9.232;2023-07-13T10:05:58;5.00;;;2.70;;
21202;SDS011;10759;51.982;9.232;2023-07-13T10:08:38;4.63;;;2.50;;
21202;SDS011;10759;51.982;9.232;2023-07-13T10:11:09;4.97;;;2.30;;
21202;SDS011;10759;51.982;9.232;2023-07-13T10:13:40;4.57;;;2.72;;
21202;SDS011;10759;51.982;9.232;2023-07-13T10:16:11;3.38;;;2.40;;
21202;SDS011;10759;51.982;9.232;2023-07-13T10:18:42;5.97;;;3.03;;
21202;SDS011;10759;51.982;9.232;2023-07-13T10:21:14;4.63;;;2.40;;
21202;SDS011;10759;51.982;9.232;2023-07-13T10:23:47;4.35;;;2.38;;
21202;SDS011;10759;51.982;9.232;2023-07-13T10:26:21;5.57;;;3.05;;
21202;SDS011;10759;51.982;9.232;2023-07-13T10:28:52;4.00;;;2.42;;
21202;SDS011;10759;51.982;9.232;2023-07-13T10:31:25;7.65;;;2.55;;
21202;SDS011;10759;51.982;9.232;2023-07-13T10:33:53;2.75;;;2.20;;
21202;SDS011;10759;51.982;9.232;2023-07-13T10:36:26;6.15;;;2.70;;
21202;SDS011;10759;51.982;9.232;2023-07-13T10:39:01;4.20;;;2.88;;
21202;SDS011;10759;51.982;9.232;2023-07-13T10:41:33;4.10;;;2.35;;
21202;SDS011;10759;51.982;9.232;2023-07-13T10:44:06;4.43;;;2.92;;
21202;SDS011;10759;51.982;9.232;2023-07-13T10:46:44;5.03;;;2.60;;
21202;SDS011;10759;51.982;9.232;2023-07-13T10:51:41;4.80;;;2.22;;
21202;SDS011;10759;51.982;9.232;2023-07-13T10:54:10;4.93;;;2.63;;
21202;SDS011;10759;51.982;9.232;2023-07-13T10:56:47;4.57;;;2.45;;
21202;SDS011;10759;51.982;9.232;2023-07-13T10:59:18;4.90;;;2.58;;
21202;SDS011;10759;51.982;9.232;2023-07-13T11:01:55;3.45;;;2.25;;
21202;SDS011;10759;51.982;9.232;2023-07-13T11:04:25;4.05;;;2.58;;
21202;SDS011;10759;51.982;9.232;2023-07-13T11:06:57;4.13;;;2.47;;
21202;SDS011;10759;51.982;9.232;2023-07-13T11:09:31;5.65;;;2.55;;
21202;SDS011;10759;51.982;9.232;2023-07-13T11:12:06;5.85;;;2.47;;
21202;SDS011;10759;51.982;9.232;2023-07-13T11:15:01;4.35;;;2.85;;
21202;SDS011;10759;51.982;9.232;2023-07-13T11:17:46;3.35;;;2.38;;
21202;SDS011;10759;51.982;9.232;2023-07-13T11:20:20;5.43;;;2.70;;
21202;SDS011;10759;51.982;9.232;2023-07-13T11:22:51;3.33;;;2.60;;
21202;SDS011;10759;51.982;9.232;2023-07-13T11:25:34;6.25;;;2.55;;
21202;SDS011;10759;51.982;9.232;2023-07-13T11:28:06;5.60;;;2.78;;
21202;SDS011;10759;51.982;9.232;2023-07-13T11:30:43;4.65;;;2.90;;
21202;SDS011;10759;51.982;9.232;2023-07-13T11:33:17;4.15;;;2.58;;
21202;SDS011;10759;51.982;9.232;2023-07-13T11:35:51;5.95;;;2.95;;
21202;SDS011;10759;51.982;9.232;2023-07-13T11:38:31;4.15;;;2.70;;
21202;SDS011;10759;51.982;9.232;2023-07-13T11:41:03;3.78;;;2.28;;
21202;SDS011;10759;51.982;9.232;2023-07-13T11:43:34;4.00;;;2.60;;
21202;SDS011;10759;51.982;9.232;2023-07-13T11:46:19;4.82;;;2.65;;
21202;SDS011;10759;51.982;9.232;2023-07-13T11:48:50;7.00;;;2.85;;
21202;SDS011;10759;51.982;9.232;2023-07-13T11:51:20;3.42;;;2.95;;
21202;SDS011;10759;51.982;9.232;2023-07-13T11:53:51;3.70;;;3.20;;
21202;SDS011;10759;51.982;9.232;2023-07-13T11:56:24;4.82;;;3.25;;
21202;SDS011;10759;51.982;9.232;2023-07-13T11:58:54;6.93;;;3.47;;
21202;SDS011;10759;51.982;9.232;2023-07-13T12:01:24;6.38;;;2.70;;
21202;SDS011;10759;51.982;9.232;2023-07-13T12:04:01;4.10;;;2.38;;
21202;SDS011;10759;51.982;9.232;2023-07-13T12:06:31;3.00;;;2.70;;
21202;SDS011;10759;51.982;9.232;2023-07-13T12:09:03;3.75;;;3.13;;
21202;SDS011;10759;51.982;9.232;2023-07-13T12:11:39;6.18;;;2.70;;
21202;SDS011;10759;51.982;9.232;2023-07-13T12:16:42;4.97;;;2.92;;
21202;SDS011;10759;51.982;9.232;2023-07-13T12:19:15;2.63;;;2.28;;
21202;SDS011;10759;51.982;9.232;2023-07-13T12:21:47;6.13;;;2.70;;
21202;SDS011;10759;51.982;9.232;2023-07-13T12:24:16;4.85;;;2.28;;
21202;SDS011;10759;51.982;9.232;2023-07-13T12:29:19;2.90;;;2.25;;
21202;SDS011;10759;51.982;9.232;2023-07-13T12:31:47;4.70;;;2.72;;
21202;SDS011;10759;51.982;9.232;2023-07-13T12:34:22;4.40;;;2.35;;
21202;SDS011;10759;51.982;9.232;2023-07-13T12:36:52;3.63;;;2.35;;
21202;SDS011;10759;51.982;9.232;2023-07-13T12:39:22;4.03;;;2.55;;
21202;SDS011;10759;51.982;9.232;2023-07-13T12:41:52;4.38;;;1.98;;
21202;SDS011;10759;51.982;9.232;2023-07-13T12:44:24;3.93;;;2.20;;
21202;SDS011;10759;51.982;9.232;2023-07-13T12:46:56;5.15;;;2.63;;
21202;SDS011;10759;51.982;9.232;2023-07-13T12:49:30;6.28;;;2.75;;
21202;SDS011;10759;51.982;9.232;2023-07-13T12:52:03;5.25;;;2.10;;
21202;SDS011;10759;51.982;9.232;2023-07-13T12:54:40;3.03;;;1.98;;
21202;SDS011;10759;51.982;9.232;2023-07-13T12:57:21;4.85;;;2.33;;
21202;SDS011;10759;51.982;9.232;2023-07-13T12:59:51;3.60;;;2.00;;
21202;SDS011;10759;51.982;9.232;2023-07-13T13:02:23;4.53;;;2.00;;
21202;SDS011;10759;51.982;9.232;2023-07-13T13:04:58;3.63;;;1.67;;
21202;SDS011;10759;51.982;9.232;2023-07-13T13:07:27;3.38;;;2.05;;
21202;SDS011;10759;51.982;9.232;2023-07-13T13:09:55;1.88;;;1.63;;
21202;SDS011;10759;51.982;9.232;2023-07-13T13:12:23;3.22;;;1.70;;
21202;SDS011;10759;51.982;9.232;2023-07-13T13:14:53;3.38;;;2.28;;
21202;SDS011;10759;51.982;9.232;2023-07-13T13:17:21;3.42;;;2.17;;
21202;SDS011;10759;51.982;9.232;2023-07-13T13:19:54;3.58;;;2.00;;
21202;SDS011;10759;51.982;9.232;2023-07-13T13:22:23;5.95;;;2.42;;
21202;SDS011;10759;51.982;9.232;2023-07-13T13:24:51;3.53;;;2.28;;
21202;SDS011;10759;51.982;9.232;2023-07-13T13:27:20;5.00;;;2.58;;
21202;SDS011;10759;51.982;9.232;2023-07-13T13:29:49;3.22;;;2.10;;
21202;SDS011;10759;51.982;9.232;2023-07-13T13:32:19;3.47;;;2.28;;
21202;SDS011;10759;51.982;9.232;2023-07-13T13:34:47;2.47;;;2.08;;
21202;SDS011;10759;51.982;9.232;2023-07-13T13:37:18;2.67;;;2.25;;
21202;SDS011;10759;51.982;9.232;2023-07-13T13:42:33;3.90;;;2.33;;
21202;SDS011;10759;51.982;9.232;2023-07-13T13:45:01;4.20;;;2.80;;
21202;SDS011;10759;51.982;9.232;2023-07-13T13:47:29;4.15;;;2.53;;
21202;SDS011;10759;51.982;9.232;2023-07-13T13:49:59;5.13;;;3.13;;
21202;SDS011;10759;51.982;9.232;2023-07-13T13:52:28;4.57;;;2.60;;
21202;SDS011;10759;51.982;9.232;2023-07-13T13:54:58;4.80;;;2.72;;
21202;SDS011;10759;51.982;9.232;2023-07-13T13:57:26;3.70;;;2.65;;
21202;SDS011;10759;51.982;9.232;2023-07-13T13:59:54;5.20;;;2.97;;
21202;SDS011;10759;51.982;9.232;2023-07-13T14:02:23;5.07;;;2.88;;
21202;SDS011;10759;51.982;9.232;2023-07-13T14:04:54;3.10;;;2.55;;
21202;SDS011;10759;51.982;9.232;2023-07-13T14:07:24;4.88;;;2.70;;
21202;SDS011;10759;51.982;9.232;2023-07-13T14:09:52;4.00;;;3.03;;
21202;SDS011;10759;51.982;9.232;2023-07-13T14:14:54;3.42;;;2.75;;
21202;SDS011;10759;51.982;9.232;2023-07-13T14:17:25;4.57;;;3.10;;
21202;SDS011;10759;51.982;9.232;2023-07-13T14:19:54;4.10;;;2.92;;
21202;SDS011;10759;51.982;9.232;2023-07-13T14:22:24;3.95;;;3.50;;
21202;SDS011;10759;51.982;9.232;2023-07-13T14:24:53;3.22;;;2.90;;
21202;SDS011;10759;51.982;9.232;2023-07-13T14:27:21;3.88;;;3.30;;
21202;SDS011;10759;51.982;9.232;2023-07-13T14:29:51;4.80;;;3.55;;
21202;SDS011;10759;51.982;9.232;2023-07-13T14:32:18;4.60;;;3.05;;
21202;SDS011;10759;51.982;9.232;2023-07-13T14:34:47;2.67;;;2.45;;
21202;SDS011;10759;51.982;9.232;2023-07-13T14:37:15;2.90;;;2.53;;
21202;SDS011;10759;51.982;9.232;2023-07-13T14:39:43;5.15;;;2.20;;
21202;SDS011;10759;51.982;9.232;2023-07-13T14:42:12;3.50;;;1.83;;
21202;SDS011;10759;51.982;9.232;2023-07-13T14:44:40;3.67;;;2.50;;
21202;SDS011;10759;51.982;9.232;2023-07-13T14:47:09;2.50;;;1.92;;
21202;SDS011;10759;51.982;9.232;2023-07-13T14:49:38;2.15;;;1.90;;
21202;SDS011;10759;51.982;9.232;2023-07-13T14:52:10;2.42;;;1.58;;
21202;SDS011;10759;51.982;9.232;2023-07-13T14:54:41;6.18;;;2.08;;
21202;SDS011;10759;51.982;9.232;2023-07-13T14:57:10;3.10;;;2.30;;
21202;SDS011;10759;51.982;9.232;2023-07-13T14:59:39;3.10;;;1.80;;
21202;SDS011;10759;51.982;9.232;2023-07-13T15:02:16;2.03;;;1.85;;
21202;SDS011;10759;51.982;9.232;2023-07-13T15:04:45;3.40;;;1.58;;
21202;SDS011;10759;51.982;9.232;2023-07-13T15:07:13;1.88;;;1.75;;
21202;SDS011;10759;51.982;9.232;2023-07-13T15:09:43;3.47;;;1.67;;
21202;SDS011;10759;51.982;9.232;2023-07-13T15:12:11;3.10;;;2.25;;
21202;SDS011;10759;51.982;9.232;2023-07-13T15:14:39;4.10;;;2.55;;
21202;SDS011;10759;51.982;9.232;2023-07-13T15:17:13;2.45;;;2.25;;
21202;SDS011;10759;51.982;9.232;2023-07-13T15:19:52;2.70;;;2.35;;
21202;SDS011;10759;51.982;9.232;2023-07-13T15:22:20;5.78;;;2.70;;
21202;SDS011;10759;51.982;9.232;2023-07-13T15:24:48;4.78;;;2.53;;
21202;SDS011;10759;51.982;9.232;2023-07-13T15:27:16;2.25;;;2.05;;